M I D A S
Marine Information and Data Acquisition System
Tripno 1121 of the Zeeleeuw from 2006-04-24 09:05:44 to 2006-04-24 17:00:00
Back to CruiseResearch ActivitiesStationsMapUnderway DataData graphs

EquipmentUnitsComment
TimeDGPSUTC
LatitudeDGPSDM.mWGS84
LongitudeDGPSDM.mWGS84
TemperatureSBE03/SBE38deg celciusITS90
ConductivitySBE21S/mITS90
SalinitySBE21 Practical Salinity Units
ChlorophylAChelsea fluorimeterg/lCalibrated in Aceton
Missing or incorrect values are displayed as -999
Sea surface data collected by the RV Zeeleeuw from 2006-04-24 06:44:26 to 2006-04-24 09:08:08
Time Latitude Longitude Temperature Conductivity Salinity ChlorophylA
2006-04-24 06:45:31 51°13.602 2°56.099 -999 4.997284 32.659073 3.668392
2006-04-24 06:46:31 51°13.602 2°56.099 -999 4.997076 32.659114 3.668392
2006-04-24 06:47:31 51°13.602 2°56.099 -999 4.996764 32.659437 3.668392
2006-04-24 06:48:31 51°13.602 2°56.099 -999 4.996453 32.658717 3.668392
2006-04-24 06:49:31 51°13.602 2°56.099 -999 4.996141 32.657996 3.668392
2006-04-24 06:50:31 51°13.602 2°56.099 -999 4.995829 32.658319 3.702101
2006-04-24 06:51:31 51°13.601 2°56.099 -999 4.995518 32.657598 3.702101
2006-04-24 06:52:31 51°13.601 2°56.099 -999 4.995206 32.6574 3.702101
2006-04-24 06:53:31 51°13.601 2°56.1 -999 4.994895 32.657201 3.702101
2006-04-24 06:54:31 51°13.602 2°56.1 -999 4.994687 32.657764 3.668392
2006-04-24 06:55:31 51°13.602 2°56.1 -999 4.994375 32.657565 3.668392
2006-04-24 06:56:31 51°13.602 2°56.099 -999 4.99396 32.656605 3.702101
2006-04-24 06:57:31 51°13.602 2°56.099 -999 4.993648 32.655884 3.668392
2006-04-24 06:58:31 51°13.602 2°56.099 -999 4.993337 32.655685 3.702101
2006-04-24 06:59:31 51°13.602 2°56.099 -999 4.993129 32.656771 3.668392
2006-04-24 07:00:31 51°13.602 2°56.098 -999 4.992817 32.656572 3.702101
2006-04-24 07:01:31 51°13.603 2°56.099 -999 4.992506 32.655852 3.668392
2006-04-24 07:02:31 51°13.603 2°56.098 -999 4.992194 32.655653 3.668392
2006-04-24 07:03:30 51°13.603 2°56.098 -999 4.991882 32.655455 3.702101
2006-04-24 07:04:31 51°13.602 2°56.099 -999 4.991467 32.655016 3.702101
2006-04-24 07:05:30 51°13.602 2°56.099 -999 4.991155 32.654818 3.702101
2006-04-24 07:06:31 51°13.602 2°56.099 -999 4.990844 32.654619 3.702101
2006-04-24 07:07:30 51°13.602 2°56.099 -999 4.990532 32.654421 3.702101
2006-04-24 07:08:30 51°13.602 2°56.099 -999 4.99022 32.654745 3.702101
2006-04-24 07:09:31 51°13.602 2°56.099 -999 4.989909 32.655068 3.702101
2006-04-24 07:10:31 51°13.601 2°56.099 -999 4.989493 32.654108 3.702101
2006-04-24 07:11:31 51°13.601 2°56.099 -999 4.989182 32.654432 3.668392
2006-04-24 07:12:31 51°13.602 2°56.099 -999 4.988766 32.654516 3.668392
2006-04-24 07:13:31 51°13.605 2°56.1 -999 4.988351 32.654078 3.702101
2006-04-24 07:14:31 51°13.6 2°56.099 -999 4.988039 32.65388 3.668392
2006-04-24 07:15:31 51°13.604 2°56.101 -999 4.987624 32.653441 3.668392
2006-04-24 07:16:31 51°13.603 2°56.1 -999 4.987208 32.653003 3.668392
2006-04-24 07:17:31 51°13.601 2°56.1 -999 4.986897 32.653328 3.702101
2006-04-24 07:18:31 51°13.602 2°56.1 -999 4.986481 32.652367 3.668392
2006-04-24 07:19:31 51°13.602 2°56.099 -999 4.986169 32.652692 3.702101
2006-04-24 07:20:31 51°13.602 2°56.099 -999 4.985754 32.652254 3.702101
2006-04-24 07:21:31 51°13.602 2°56.099 -999 4.985338 32.651816 3.668392
2006-04-24 07:22:31 51°13.602 2°56.099 -999 4.985027 32.652141 3.668392
2006-04-24 07:23:31 51°13.602 2°56.099 -999 4.984611 32.651703 3.702101
2006-04-24 07:24:31 51°13.602 2°56.099 -999 4.9843 32.652028 3.668392
2006-04-24 07:25:31 51°13.602 2°56.099 -999 4.983884 32.65159 3.668392
2006-04-24 07:26:31 51°13.602 2°56.099 -999 4.983469 32.651675 3.668392
2006-04-24 07:27:31 51°13.602 2°56.099 -999 4.983053 32.651761 3.702101
2006-04-24 07:28:31 51°13.602 2°56.099 -999 4.982638 32.6508 3.668392
2006-04-24 07:29:31 51°13.602 2°56.099 -999 4.982222 32.650885 3.668392
2006-04-24 07:30:31 51°13.601 2°56.099 -999 4.981807 32.650448 3.668392
2006-04-24 07:31:31 51°13.601 2°56.099 -999 4.981391 32.650533 3.668392
2006-04-24 07:32:31 51°13.602 2°56.098 -999 4.980872 32.649855 3.668392
2006-04-24 07:33:31 51°13.602 2°56.098 -999 4.980457 32.649941 3.668392
2006-04-24 07:34:31 51°13.602 2°56.098 -999 4.980041 32.650027 3.668392
2006-04-24 07:35:31 51°13.602 2°56.099 -999 4.979522 32.648826 3.702101
2006-04-24 07:36:31 51°13.602 2°56.098 -999 4.979106 32.648912 3.668392
2006-04-24 07:37:31 51°13.601 2°56.098 -999 4.978691 32.647951 3.702101
2006-04-24 07:38:31 51°13.601 2°56.099 -999 4.978275 32.648037 3.668392
2006-04-24 07:39:31 51°13.602 2°56.099 -999 4.97786 32.6476 3.668392
2006-04-24 07:40:31 51°13.601 2°56.099 -999 4.977444 32.647163 3.668392
2006-04-24 07:41:31 51°13.601 2°56.099 -999 4.977029 32.646725 3.668392
2006-04-24 07:42:28 51°13.601 2°56.098 -999 4.976613 32.646288 3.668392
2006-04-24 07:43:28 51°13.601 2°56.098 -999 4.976198 32.645851 3.668392
2006-04-24 07:44:28 51°13.601 2°56.099 -999 4.975783 32.645938 3.668392
2006-04-24 07:45:28 51°13.601 2°56.099 -999 4.975471 32.645741 3.702101
2006-04-24 07:46:28 51°13.601 2°56.099 -999 4.975055 32.64478 3.668392
2006-04-24 07:47:27 51°13.601 2°56.099 -999 4.97464 32.644342 3.668392
2006-04-24 07:48:28 51°13.602 2°56.1 -999 4.974328 32.64467 3.668392
2006-04-24 07:49:28 51°13.601 2°56.099 -999 4.974017 32.644473 3.668392
2006-04-24 07:50:27 51°13.602 2°56.099 -999 4.973601 32.643512 3.668392
2006-04-24 07:51:27 51°13.602 2°56.099 -999 4.97329 32.643315 3.668392
2006-04-24 07:52:28 51°13.602 2°56.1 -999 4.972978 32.643642 3.702101
2006-04-24 07:53:27 51°13.602 2°56.1 -999 4.972666 32.642921 3.668392
2006-04-24 07:54:27 51°13.602 2°56.1 -999 4.972355 32.643249 3.702101
2006-04-24 07:55:28 51°13.602 2°56.1 -999 4.972043 32.643053 3.668392
2006-04-24 07:56:28 51°13.602 2°56.1 -999 4.971732 32.642332 3.668392
2006-04-24 07:57:28 51°13.602 2°56.1 -999 4.97142 32.642135 3.668392
2006-04-24 07:58:27 51°13.602 2°56.1 -999 4.971212 32.642703 3.668392
2006-04-24 07:59:27 51°13.603 2°56.1 -999 4.970901 32.643031 3.668392
2006-04-24 08:00:28 51°13.602 2°56.1 -999 4.970589 32.64231 3.668392
2006-04-24 08:01:27 51°13.602 2°56.1 -999 4.970278 32.642114 3.668392
2006-04-24 08:02:27 51°13.602 2°56.1 -999 4.97007 32.642683 3.668392
2006-04-24 08:03:27 51°13.603 2°56.1 -999 4.969758 32.643011 3.668392
2006-04-24 08:04:28 51°13.603 2°56.1 -999 4.969447 32.64229 3.668392
2006-04-24 08:05:28 51°13.603 2°56.099 -999 4.969135 32.642619 3.668392
2006-04-24 08:06:27 51°13.602 2°56.099 -999 4.968927 32.643188 3.668392
2006-04-24 08:07:28 51°13.602 2°56.099 -999 4.968616 32.642992 3.668392
2006-04-24 08:08:28 51°13.602 2°56.099 -999 4.968304 32.643321 3.668392
2006-04-24 08:09:28 51°13.601 2°56.1 -999 4.967993 32.643125 3.668392
2006-04-24 08:10:27 51°13.602 2°56.099 -999 4.967577 32.642163 3.668392
2006-04-24 08:11:28 51°13.602 2°56.099 -999 4.967369 32.642733 3.668392
2006-04-24 08:12:28 51°13.602 2°56.099 -999 4.966954 32.642296 3.668392
2006-04-24 08:13:28 51°13.602 2°56.1 -999 4.966642 32.642626 3.668392
2006-04-24 08:14:28 51°13.602 2°56.1 -999 4.966331 32.642955 3.668392
2006-04-24 08:15:28 51°13.602 2°56.1 -999 4.966019 32.643285 3.668392
2006-04-24 08:16:27 51°13.601 2°56.1 -999 4.965604 32.642323 3.668392
2006-04-24 08:17:27 51°13.601 2°56.1 -999 4.964253 32.635521 3.668392
2006-04-24 08:18:28 51°13.6 2°56.101 -999 4.963838 32.634559 3.668392
2006-04-24 08:19:28 51°13.599 2°56.1 -999 4.963422 32.634123 3.668392
2006-04-24 08:20:28 51°13.606 2°56.054 -999 4.963111 32.634977 3.668392
2006-04-24 08:21:28 51°13.636 2°55.958 -999 4.962591 32.633775 3.668392
2006-04-24 08:22:28 51°13.677 2°55.856 -999 4.962072 32.632573 3.668392
2006-04-24 08:23:28 51°13.695 2°55.756 -999 4.961657 32.633188 3.668392
2006-04-24 08:24:28 51°13.7 2°55.715 -999 4.961241 32.6317 3.668392
2006-04-24 08:25:28 51°13.761 2°55.7 -999 4.960514 32.632645 3.668392
2006-04-24 08:26:27 51°13.868 2°55.613 -999 4.960722 32.633126 3.668392
2006-04-24 08:27:27 51°13.994 2°55.517 -999 -999 -999 -999
2006-04-24 08:28:27 51°14.121 2°55.421 -999 -999 -999 -999
2006-04-24 08:29:28 51°14.253 2°55.283 -999 -999 -999 -999
2006-04-24 08:30:27 51°14.361 2°55.079 -999 -999 -999 -999
2006-04-24 08:31:27 51°14.532 2°54.983 -999 -999 -999 -999
2006-04-24 08:32:27 51°14.738 2°54.966 -999 -999 -999 -999
2006-04-24 08:33:27 51°14.962 2°54.96 -999 -999 -999 -999
2006-04-24 08:34:27 51°15.189 2°54.952 -999 -999 -999 -999
2006-04-24 08:35:27 51°15.416 2°54.945 -999 -999 -999 -999
2006-04-24 08:36:27 51°15.633 2°55.064 -999 -999 -999 -999
2006-04-24 08:37:28 51°15.798 2°55.338 -999 -999 -999 -999
2006-04-24 08:38:27 51°15.93 2°55.644 -999 -999 -999 -999
2006-04-24 08:39:28 51°16.068 2°55.959 -999 -999 -999 -999
2006-04-24 08:40:27 51°16.197 2°56.269 -999 -999 -999 -999
2006-04-24 08:41:27 51°16.333 2°56.58 -999 -999 -999 -999
2006-04-24 08:42:27 51°16.459 2°56.901 -999 -999 -999 -999
2006-04-24 09:00:58 51°18.779 3°2.922 17.6175 -999 -999 -999
2006-04-24 09:01:58 51°18.926 3°3.219 17.64 -999 -999 -999
2006-04-24 09:02:57 51°19.069 3°3.513 10.2712 -999 -999 -999
2006-04-24 09:03:58 51°19.203 3°3.829 10.0781 -999 -999 -999
2006-04-24 09:04:58 51°19.335 3°4.141 10.0186 -999 -999 -999
2006-04-24 09:05:58 51°19.474 3°4.448 9.9946 -999 -999 -999
2006-04-24 09:06:58 51°19.578 3°4.794 9.9647 -999 -999 -999
2006-04-24 09:07:57 51°19.703 3°5.116 9.9924 -999 -999 -999